Time,TemperatureF,DewpointF,PressureIn,WindDirection,WindDirectionDegrees,WindSpeedMPH,WindSpeedGustMPH,Humidity,HourlyPrecipIn,Conditions,Clouds,dailyrainin,SoftwareType,DateUTC
2013-02-20 00:00:00,26.6,9.8,27.11,NNW,341,5.3,23.1,48,0.00,--,--,0.00,awk and wget,2013-02-20 05:00:00,
2013-02-20 00:05:00,26.6,9.6,27.12,NNW,339,14.9,23.1,48,0.00,--,--,0.00,awk and wget,2013-02-20 05:05:00,
2013-02-20 00:10:00,26.5,10.0,27.12,NNW,337,13.4,13.4,49,0.00,--,--,0.00,awk and wget,2013-02-20 05:10:00,
2013-02-20 00:15:00,26.4,11.0,27.12,NNW,341,7.1,14.2,51,0.00,--,--,0.00,awk and wget,2013-02-20 05:15:00,
2013-02-20 00:20:00,26.2,12.0,27.12,NNW,338,12.8,14.2,54,0.00,--,--,0.00,awk and wget,2013-02-20 05:20:00,
2013-02-20 00:30:00,25.8,13.6,27.12,NNW,342,9.2,21.1,59,0.00,--,--,0.00,awk and wget,2013-02-20 05:30:00,
2013-02-20 00:40:00,25.2,14.9,27.12,NNW,343,1.3,19.7,64,0.00,--,--,0.00,awk and wget,2013-02-20 05:40:00,
2013-02-20 00:50:00,25.0,15.1,27.13,NNW,345,5.1,17.4,65,0.00,--,--,0.00,awk and wget,2013-02-20 05:50:00,
2013-02-20 00:55:00,24.8,15.1,27.13,NNW,343,8.6,21.8,66,0.00,--,--,0.00,awk and wget,2013-02-20 05:55:00,
2013-02-20 01:00:00,24.8,14.9,27.13,NNW,336,23.2,23.2,65,0.00,--,--,0.00,awk and wget,2013-02-20 06:00:00,
2013-02-20 01:10:00,24.6,13.9,27.13,NNW,341,9.9,21.3,63,0.00,--,--,0.00,awk and wget,2013-02-20 06:10:00,
2013-02-20 01:20:00,24.1,13.5,27.14,NNW,340,10.7,24.2,63,0.00,--,--,0.00,awk and wget,2013-02-20 06:20:00,
2013-02-20 01:30:00,24.0,12.0,27.14,NNW,336,6.9,28.7,59,0.00,--,--,0.00,awk and wget,2013-02-20 06:30:00,
2013-02-20 01:40:00,23.8,11.9,27.14,NNW,339,4.2,28.7,59,0.00,--,--,0.00,awk and wget,2013-02-20 06:40:00,
2013-02-20 01:50:00,23.4,12.7,27.14,NNW,341,14.5,21.5,63,0.00,--,--,0.00,awk and wget,2013-02-20 06:50:00,
2013-02-20 02:00:00,23.2,12.1,27.14,NNW,342,9.8,26.1,61,0.00,--,--,0.00,awk and wget,2013-02-20 07:00:00,
2013-02-20 02:10:00,22.9,11.7,27.14,NNW,338,32.9,32.9,61,0.00,--,--,0.00,awk and wget,2013-02-20 07:10:00,
2013-02-20 02:20:00,22.8,11.3,27.13,NNW,339,5.7,28.1,60,0.00,--,--,0.00,awk and wget,2013-02-20 07:20:00,
2013-02-20 02:30:00,22.6,11.9,27.13,NNW,341,16.8,22.9,62,0.00,--,--,0.00,awk and wget,2013-02-20 07:30:00,
2013-02-20 02:40:00,22.5,11.7,27.13,NNW,338,12.8,23.4,62,0.00,--,--,0.00,awk and wget,2013-02-20 07:40:00,
2013-02-20 02:50:00,22.4,11.8,27.13,NNW,336,14.6,23.4,63,0.00,--,--,0.00,awk and wget,2013-02-20 07:50:00,
2013-02-20 02:55:00,22.3,11.6,27.13,NNW,339,4.9,23.3,62,0.00,--,--,0.00,awk and wget,2013-02-20 07:55:00,
2013-02-20 03:00:00,22.3,11.7,27.12,NNE,27,7.5,23.2,63,0.00,--,--,0.00,awk and wget,2013-02-20 08:00:00,
2013-02-20 03:10:00,22.1,12.0,27.13,NNW,346,9.7,33.0,64,0.00,--,--,0.00,awk and wget,2013-02-20 08:10:00,
2013-02-20 03:15:00,22.3,11.2,27.13,NNW,348,11.1,33.0,61,0.00,--,--,0.00,awk and wget,2013-02-20 08:15:00,
2013-02-20 03:20:00,22.2,11.0,27.14,NNW,346,6.8,33.0,61,0.00,--,--,0.00,awk and wget,2013-02-20 08:20:00,
2013-02-20 03:30:00,21.9,10.9,27.14,NNW,336,15.3,16.3,61,0.00,--,--,0.00,awk and wget,2013-02-20 08:30:00,
2013-02-20 03:40:00,21.7,10.4,27.14,NNW,344,8.9,25.6,61,0.00,--,--,0.00,awk and wget,2013-02-20 08:40:00,
2013-02-20 03:50:00,21.6,10.0,27.15,NNW,340,7.4,32.1,60,0.00,--,--,0.00,awk and wget,2013-02-20 08:50:00,
2013-02-20 04:00:00,21.4,9.8,27.14,NE,38,13.8,32.1,60,0.00,--,--,0.00,awk and wget,2013-02-20 09:00:00,
2013-02-20 04:10:00,21.2,9.7,27.15,NNW,337,2.7,24.9,60,0.00,--,--,0.00,awk and wget,2013-02-20 09:10:00,
2013-02-20 04:20:00,21.0,9.5,27.15,NNW,337,5.2,23.0,60,0.00,--,--,0.00,awk and wget,2013-02-20 09:20:00,
2013-02-20 04:30:00,20.9,9.5,27.15,NNW,347,11.0,23.5,60,0.00,--,--,0.00,awk and wget,2013-02-20 09:30:00,
2013-02-20 04:40:00,20.7,10.0,27.15,NNW,344,7.3,23.5,62,0.00,--,--,0.00,awk and wget,2013-02-20 09:40:00,
2013-02-20 04:50:00,20.7,9.5,27.16,NNW,342,6.5,18.7,61,0.00,--,--,0.00,awk and wget,2013-02-20 09:50:00,
2013-02-20 04:55:00,20.7,9.5,27.16,NNW,339,10.2,18.2,61,0.00,--,--,0.00,awk and wget,2013-02-20 09:55:00,
2013-02-20 05:00:00,20.5,9.6,27.16,North,353,3.6,18.2,62,0.00,--,--,0.00,awk and wget,2013-02-20 10:00:00,
2013-02-20 05:10:00,20.4,9.9,27.16,NNW,340,5.2,18.1,63,0.00,--,--,0.00,awk and wget,2013-02-20 10:10:00,
2013-02-20 05:15:00,20.4,9.9,27.16,NNW,336,4.5,18.1,63,0.00,--,--,0.00,awk and wget,2013-02-20 10:15:00,
2013-02-20 05:20:00,20.3,10.2,27.16,NNW,337,1.3,18.1,64,0.00,--,--,0.00,awk and wget,2013-02-20 10:20:00,
2013-02-20 05:25:00,20.4,10.0,27.16,NNW,340,6.5,15.8,63,0.00,--,--,0.00,awk and wget,2013-02-20 10:25:00,
2013-02-20 05:30:00,20.3,10.1,27.16,SE,142,1.9,12.9,64,0.00,--,--,0.00,awk and wget,2013-02-20 10:30:00,
2013-02-20 05:40:00,20.4,9.7,27.16,North,349,8.8,15.7,62,0.00,--,--,0.00,awk and wget,2013-02-20 10:40:00,
2013-02-20 05:50:00,20.3,10.4,27.17,NE,55,6.3,24.5,65,0.00,--,--,0.00,awk and wget,2013-02-20 10:50:00,
2013-02-20 06:00:00,20.1,10.9,27.17,NNW,343,2.0,24.5,66,0.00,--,--,0.00,awk and wget,2013-02-20 11:00:00,
2013-02-20 06:05:00,19.9,11.3,27.17,NNW,337,4.7,14.1,68,0.00,--,--,0.00,awk and wget,2013-02-20 11:05:00,
2013-02-20 06:10:00,19.9,11.1,27.18,NNE,23,6.3,17.8,68,0.00,--,--,0.00,awk and wget,2013-02-20 11:10:00,
2013-02-20 06:20:00,19.9,10.7,27.18,NNW,339,4.2,22.2,67,0.00,--,--,0.00,awk and wget,2013-02-20 11:20:00,
2013-02-20 06:30:00,19.8,10.6,27.18,NNW,336,9.3,29.1,66,0.00,--,--,0.00,awk and wget,2013-02-20 11:30:00,
2013-02-20 06:40:00,19.4,9.8,27.18,NNW,347,5.5,15.9,65,0.00,--,--,0.00,awk and wget,2013-02-20 11:40:00,
2013-02-20 06:45:00,19.4,9.4,27.18,NNW,346,5.2,18.5,64,0.00,--,--,0.00,awk and wget,2013-02-20 11:45:00,
2013-02-20 06:50:00,19.4,9.4,27.19,SSE,147,0.9,18.5,64,0.00,--,--,0.00,awk and wget,2013-02-20 11:50:00,
2013-02-20 07:00:00,19.2,9.3,27.18,East,81,12.1,20.0,64,0.00,--,--,0.00,awk and wget,2013-02-20 12:00:00,
2013-02-20 07:05:00,19.2,9.0,27.19,NNW,339,5.5,20.0,63,0.00,--,--,0.00,awk and wget,2013-02-20 12:05:00,
2013-02-20 07:10:00,19.1,9.1,27.19,North,356,5.5,20.0,64,0.00,--,--,0.00,awk and wget,2013-02-20 12:10:00,
2013-02-20 07:20:00,19.0,9.8,27.19,NNE,15,5.4,17.0,66,0.00,--,--,0.00,awk and wget,2013-02-20 12:20:00,
2013-02-20 07:30:00,19.1,10.4,27.20,NNE,23,4.8,20.8,68,0.00,--,--,0.00,awk and wget,2013-02-20 12:30:00,
2013-02-20 07:40:00,18.9,8.3,27.20,NNW,339,5.7,20.8,62,0.00,--,--,0.00,awk and wget,2013-02-20 12:40:00,
2013-02-20 07:45:00,18.9,8.6,27.21,North,355,10.5,14.7,63,0.00,--,--,0.00,awk and wget,2013-02-20 12:45:00,
2013-02-20 07:50:00,18.9,9.3,27.21,ESE,115,8.8,16.1,65,0.00,--,--,0.00,awk and wget,2013-02-20 12:50:00,
2013-02-20 08:00:00,18.7,8.6,27.21,NNW,338,3.2,17.5,64,0.00,--,--,0.00,awk and wget,2013-02-20 13:00:00,
2013-02-20 08:10:00,18.7,8.1,27.22,NNW,340,12.4,14.1,62,0.00,--,--,0.00,awk and wget,2013-02-20 13:10:00,
2013-02-20 08:15:00,18.7,7.6,27.22,NNW,342,4.1,15.6,61,0.00,--,--,0.00,awk and wget,2013-02-20 13:15:00,
2013-02-20 08:20:00,18.7,7.9,27.22,NNW,338,1.1,15.6,62,0.00,--,--,0.00,awk and wget,2013-02-20 13:20:00,
2013-02-20 08:30:00,18.7,8.9,27.23,SE,133,3.5,22.5,65,0.00,--,--,0.00,awk and wget,2013-02-20 13:30:00,
2013-02-20 08:40:00,18.7,8.7,27.22,SE,132,4.5,22.5,64,0.00,--,--,0.00,awk and wget,2013-02-20 13:40:00,
2013-02-20 08:50:00,18.6,8.0,27.22,NNW,338,12.7,17.3,62,0.00,--,--,0.00,awk and wget,2013-02-20 13:50:00,
2013-02-20 09:00:00,18.6,7.4,27.22,NNW,341,6.4,33.6,60,0.00,--,--,0.00,awk and wget,2013-02-20 14:00:00,
2013-02-20 09:10:00,18.8,7.6,27.22,North,1,9.6,19.5,61,0.00,--,--,0.00,awk and wget,2013-02-20 14:10:00,
2013-02-20 09:20:00,18.8,7.6,27.23,NE,50,6.6,11.1,61,0.00,--,--,0.00,awk and wget,2013-02-20 14:20:00,
2013-02-20 09:30:00,19.3,8.1,27.22,NNW,337,8.2,15.1,61,0.00,--,--,0.00,awk and wget,2013-02-20 14:30:00,
2013-02-20 09:40:00,19.3,7.3,27.22,North,11,8.7,10.2,59,0.00,--,--,0.00,awk and wget,2013-02-20 14:40:00,
2013-02-20 09:50:00,19.8,7.9,27.23,NNW,340,5.6,29.3,59,0.00,--,--,0.00,awk and wget,2013-02-20 14:50:00,
2013-02-20 09:55:00,20.1,8.1,27.23,NNW,345,3.2,29.3,59,0.00,--,--,0.00,awk and wget,2013-02-20 14:55:00,
2013-02-20 10:00:00,19.8,7.9,27.23,NNW,336,6.7,11.4,59,0.00,--,--,0.00,awk and wget,2013-02-20 15:00:00,
2013-02-20 10:10:00,19.7,7.7,27.23,NNW,342,1.0,13.5,59,0.00,--,--,0.00,awk and wget,2013-02-20 15:10:00,
2013-02-20 10:20:00,19.7,7.4,27.23,East,79,4.3,13.5,58,0.00,--,--,0.00,awk and wget,2013-02-20 15:20:00,
2013-02-20 10:25:00,19.7,7.4,27.24,NNW,338,8.4,16.7,58,0.00,--,--,0.00,awk and wget,2013-02-20 15:25:00,
2013-02-20 10:30:00,20.1,7.7,27.24,NNE,29,7.6,22.0,57,0.00,--,--,0.00,awk and wget,2013-02-20 15:30:00,
2013-02-20 10:40:00,20.0,7.6,27.24,NNW,344,6.3,22.0,57,0.00,--,--,0.00,awk and wget,2013-02-20 15:40:00,
2013-02-20 10:50:00,20.2,8.1,27.24,NNW,336,7.6,25.3,58,0.00,--,--,0.00,awk and wget,2013-02-20 15:50:00,
2013-02-20 11:00:00,21.1,8.4,27.24,North,7,16.3,25.3,57,0.00,--,--,0.00,awk and wget,2013-02-20 16:00:00,
2013-02-20 11:10:00,20.8,8.3,27.24,NNW,342,4.3,26.2,57,0.00,--,--,0.00,awk and wget,2013-02-20 16:10:00,
2013-02-20 11:20:00,21.3,8.3,27.24,NNW,337,12.9,26.2,56,0.00,--,--,0.00,awk and wget,2013-02-20 16:20:00,
2013-02-20 11:30:00,21.2,7.7,27.23,NNW,336,7.8,21.7,55,0.00,--,--,0.00,awk and wget,2013-02-20 16:30:00,
2013-02-20 11:40:00,21.2,8.2,27.23,NNW,345,15.1,21.7,56,0.00,--,--,0.00,awk and wget,2013-02-20 16:40:00,
2013-02-20 11:50:00,21.9,8.1,27.23,North,355,6.7,23.6,54,0.00,--,--,0.00,awk and wget,2013-02-20 16:50:00,
2013-02-20 12:00:00,22.1,8.4,27.23,NNW,340,20.7,26.6,54,0.00,--,--,0.00,awk and wget,2013-02-20 17:00:00,
2013-02-20 12:10:00,22.1,8.6,27.23,NNW,339,7.2,26.6,55,0.00,--,--,0.00,awk and wget,2013-02-20 17:10:00,
2013-02-20 12:20:00,21.8,8.3,27.23,NNW,335,10.5,22.4,55,0.00,--,--,0.00,awk and wget,2013-02-20 17:20:00,
2013-02-20 12:30:00,22.2,8.7,27.23,North,352,11.6,21.5,55,0.00,--,--,0.00,awk and wget,2013-02-20 17:30:00,
2013-02-20 12:40:00,21.5,8.2,27.23,North,354,20.0,23.2,55,0.00,--,--,0.00,awk and wget,2013-02-20 17:40:00,
2013-02-20 12:50:00,22.3,8.9,27.22,NNW,333,13.3,23.2,55,0.00,--,--,0.00,awk and wget,2013-02-20 17:50:00,
2013-02-20 13:00:00,22.1,9.3,27.23,NNW,344,10.0,25.2,57,0.00,--,--,0.00,awk and wget,2013-02-20 18:00:00,
2013-02-20 13:10:00,22.0,9.6,27.23,NNW,337,7.7,21.8,58,0.00,--,--,0.00,awk and wget,2013-02-20 18:10:00,
2013-02-20 13:20:00,21.9,8.2,27.23,NNW,339,7.9,30.0,55,0.00,--,--,0.00,awk and wget,2013-02-20 18:20:00,
2013-02-20 13:30:00,22.2,8.7,27.23,NNW,345,14.7,22.3,55,0.00,--,--,0.00,awk and wget,2013-02-20 18:30:00,
2013-02-20 13:40:00,22.1,8.4,27.23,NNE,13,6.7,25.3,55,0.00,--,--,0.00,awk and wget,2013-02-20 18:40:00,
2013-02-20 13:50:00,22.4,8.5,27.22,North,350,23.1,23.1,54,0.00,--,--,0.00,awk and wget,2013-02-20 18:50:00,
2013-02-20 14:00:00,23.0,9.2,27.22,NNW,333,7.8,27.0,54,0.00,--,--,0.00,awk and wget,2013-02-20 19:00:00,
2013-02-20 14:10:00,23.5,8.8,27.22,NNW,339,5.3,28.0,52,0.00,--,--,0.00,awk and wget,2013-02-20 19:10:00,
2013-02-20 14:20:00,24.4,9.2,27.22,NNW,335,8.3,32.5,51,0.00,--,--,0.00,awk and wget,2013-02-20 19:20:00,
2013-02-20 14:25:00,23.7,8.1,27.22,NNW,346,11.0,32.5,50,0.00,--,--,0.00,awk and wget,2013-02-20 19:25:00,
2013-02-20 14:30:00,24.2,8.0,27.23,NNW,340,19.9,32.5,49,0.00,--,--,0.00,awk and wget,2013-02-20 19:30:00,
2013-02-20 14:40:00,23.7,7.6,27.23,NNW,335,13.0,21.4,49,0.00,--,--,0.00,awk and wget,2013-02-20 19:40:00,
2013-02-20 14:50:00,24.0,7.8,27.23,NNW,337,14.2,22.6,49,0.00,--,--,0.00,awk and wget,2013-02-20 19:50:00,
2013-02-20 15:00:00,23.8,8.4,27.23,NNE,22,10.5,26.4,51,0.00,--,--,0.00,awk and wget,2013-02-20 20:00:00,
2013-02-20 15:10:00,22.9,8.1,27.24,NNW,338,19.6,28.4,52,0.00,--,--,0.00,awk and wget,2013-02-20 20:10:00,
2013-02-20 15:20:00,23.0,7.9,27.25,NNW,333,21.5,33.1,51,0.00,--,--,0.00,awk and wget,2013-02-20 20:20:00,
2013-02-20 15:30:00,23.0,8.6,27.25,NNW,336,4.1,37.0,53,0.00,--,--,0.00,awk and wget,2013-02-20 20:30:00,
2013-02-20 15:40:00,23.2,8.9,27.25,NNW,337,10.9,26.5,53,0.00,--,--,0.00,awk and wget,2013-02-20 20:40:00,
2013-02-20 15:50:00,23.7,8.9,27.25,NNW,333,11.2,16.7,52,0.00,--,--,0.00,awk and wget,2013-02-20 20:50:00,
2013-02-20 15:55:00,24.2,9.7,27.25,NE,39,4.6,23.5,53,0.00,--,--,0.00,awk and wget,2013-02-20 20:55:00,
2013-02-20 16:00:00,23.6,8.9,27.25,NE,36,4.7,23.5,52,0.00,--,--,0.00,awk and wget,2013-02-20 21:00:00,
2013-02-20 16:10:00,23.0,8.4,27.25,NNW,340,3.8,21.7,52,0.00,--,--,0.00,awk and wget,2013-02-20 21:10:00,
2013-02-20 16:15:00,23.1,9.0,27.25,NNW,339,11.2,21.7,54,0.00,--,--,0.00,awk and wget,2013-02-20 21:15:00,
2013-02-20 16:20:00,23.5,8.8,27.25,NE,44,2.6,26.8,52,0.00,--,--,0.00,awk and wget,2013-02-20 21:20:00,
2013-02-20 16:30:00,23.3,8.4,27.25,NNW,341,11.8,29.5,52,0.00,--,--,0.00,awk and wget,2013-02-20 21:30:00,
2013-02-20 16:35:00,23.4,7.7,27.25,NNW,332,7.4,29.5,50,0.00,--,--,0.00,awk and wget,2013-02-20 21:35:00,
2013-02-20 16:40:00,23.4,8.0,27.26,NNW,342,12.9,25.6,51,0.00,--,--,0.00,awk and wget,2013-02-20 21:40:00,
2013-02-20 16:50:00,23.0,8.1,27.26,NNW,333,10.8,24.3,52,0.00,--,--,0.00,awk and wget,2013-02-20 21:50:00,
2013-02-20 16:55:00,22.9,7.9,27.26,NNW,339,12.0,24.3,51,0.00,--,--,0.00,awk and wget,2013-02-20 21:55:00,
2013-02-20 17:00:00,23.7,8.6,27.26,NNW,341,6.7,24.3,51,0.00,--,--,0.00,awk and wget,2013-02-20 22:00:00,
2013-02-20 17:10:00,23.0,7.9,27.26,NNW,332,18.0,23.4,51,0.00,--,--,0.00,awk and wget,2013-02-20 22:10:00,
2013-02-20 17:15:00,22.9,8.1,27.27,NNW,332,9.3,20.6,52,0.00,--,--,0.00,awk and wget,2013-02-20 22:15:00,
2013-02-20 17:20:00,22.9,8.0,27.26,NNW,343,10.6,20.6,52,0.00,--,--,0.00,awk and wget,2013-02-20 22:20:00,
2013-02-20 17:30:00,22.2,7.7,27.26,NNW,334,4.0,24.0,53,0.00,--,--,0.00,awk and wget,2013-02-20 22:30:00,
2013-02-20 17:40:00,21.7,7.8,27.27,North,4,4.1,26.8,54,0.00,--,--,0.00,awk and wget,2013-02-20 22:40:00,
2013-02-20 17:50:00,21.3,7.7,27.27,North,352,10.2,24.1,54,0.00,--,--,0.00,awk and wget,2013-02-20 22:50:00,
2013-02-20 18:00:00,21.1,8.1,27.27,NNW,337,1.2,23.3,56,0.00,--,--,0.00,awk and wget,2013-02-20 23:00:00,
2013-02-20 18:10:00,20.9,8.2,27.28,NNW,336,3.4,18.7,57,0.00,--,--,0.00,awk and wget,2013-02-20 23:10:00,
2013-02-20 18:20:00,20.8,7.6,27.28,NNW,333,3.0,14.6,56,0.00,--,--,0.00,awk and wget,2013-02-20 23:20:00,
2013-02-20 18:30:00,20.7,8.4,27.28,NNW,339,5.3,18.3,58,0.00,--,--,0.00,awk and wget,2013-02-20 23:30:00,
2013-02-20 18:40:00,20.6,8.7,27.28,NNW,339,7.4,20.5,59,0.00,--,--,0.00,awk and wget,2013-02-20 23:40:00,
2013-02-20 18:50:00,20.6,8.1,27.29,ENE,74,3.9,21.5,57,0.00,--,--,0.00,awk and wget,2013-02-20 23:50:00,
2013-02-20 18:55:00,20.2,7.7,27.29,NE,42,1.6,21.5,57,0.00,--,--,0.00,awk and wget,2013-02-20 23:55:00,
2013-02-20 19:00:00,20.2,7.6,27.29,NNW,341,4.8,19.2,57,0.00,--,--,0.00,awk and wget,2013-02-21 00:00:00,
2013-02-20 19:10:00,20.2,7.9,27.29,NNW,339,7.1,25.8,58,0.00,--,--,0.00,awk and wget,2013-02-21 00:10:00,
2013-02-20 19:20:00,19.8,8.0,27.29,NNW,347,5.0,25.8,59,0.00,--,--,0.00,awk and wget,2013-02-21 00:20:00,
2013-02-20 19:30:00,19.7,7.8,27.30,NNW,336,7.5,25.7,59,0.00,--,--,0.00,awk and wget,2013-02-21 00:30:00,
2013-02-20 19:40:00,19.8,7.8,27.30,NNW,338,11.8,18.8,59,0.00,--,--,0.00,awk and wget,2013-02-21 00:40:00,
2013-02-20 19:50:00,19.5,7.8,27.29,NNW,340,3.3,17.9,59,0.00,--,--,0.00,awk and wget,2013-02-21 00:50:00,
2013-02-20 20:00:00,19.5,8.1,27.29,NNW,337,6.7,19.1,60,0.00,--,--,0.00,awk and wget,2013-02-21 01:00:00,
2013-02-20 20:05:00,19.5,7.7,27.30,East,79,2.2,19.1,59,0.00,--,--,0.00,awk and wget,2013-02-21 01:05:00,
2013-02-20 20:10:00,19.4,7.9,27.30,NNW,343,12.0,17.3,60,0.00,--,--,0.00,awk and wget,2013-02-21 01:10:00,
2013-02-20 20:15:00,19.3,8.1,27.31,North,351,13.1,18.3,61,0.00,--,--,0.00,awk and wget,2013-02-21 01:15:00,
2013-02-20 20:20:00,19.2,8.1,27.31,NNW,340,14.6,18.3,61,0.00,--,--,0.00,awk and wget,2013-02-21 01:20:00,
2013-02-20 20:30:00,19.0,8.1,27.31,NNW,342,3.3,18.9,61,0.00,--,--,0.00,awk and wget,2013-02-21 01:30:00,
2013-02-20 20:40:00,19.1,8.3,27.31,North,351,10.4,14.7,62,0.00,--,--,0.00,awk and wget,2013-02-21 01:40:00,
2013-02-20 20:45:00,19.3,8.3,27.32,NNW,339,14.7,27.8,61,0.00,--,--,0.00,awk and wget,2013-02-21 01:45:00,
2013-02-20 20:50:00,19.3,8.0,27.32,NNW,342,4.7,27.8,60,0.00,--,--,0.00,awk and wget,2013-02-21 01:50:00,
2013-02-20 21:00:00,18.9,8.2,27.31,NNW,345,10.4,21.7,62,0.00,--,--,0.00,awk and wget,2013-02-21 02:00:00,
2013-02-20 21:10:00,18.6,8.4,27.32,NNW,342,1.6,19.7,63,0.00,--,--,0.00,awk and wget,2013-02-21 02:10:00,
2013-02-20 21:20:00,18.5,8.5,27.32,NNW,348,12.5,23.2,64,0.00,--,--,0.00,awk and wget,2013-02-21 02:20:00,
2013-02-20 21:30:00,18.2,8.5,27.32,NNW,342,4.1,23.2,65,0.00,--,--,0.00,awk and wget,2013-02-21 02:30:00,
2013-02-20 21:40:00,18.1,8.7,27.32,NNW,342,6.9,17.4,66,0.00,--,--,0.00,awk and wget,2013-02-21 02:40:00,
2013-02-20 21:50:00,18.2,8.4,27.32,NNW,338,8.1,24.1,64,0.00,--,--,0.00,awk and wget,2013-02-21 02:50:00,
2013-02-20 22:00:00,18.0,8.4,27.32,North,6,10.2,24.1,65,0.00,--,--,0.00,awk and wget,2013-02-21 03:00:00,
2013-02-20 22:10:00,18.1,8.5,27.32,NNW,341,8.3,20.7,65,0.00,--,--,0.00,awk and wget,2013-02-21 03:10:00,
2013-02-20 22:20:00,17.9,8.5,27.32,NNW,339,7.5,19.2,66,0.00,--,--,0.00,awk and wget,2013-02-21 03:20:00,
2013-02-20 22:30:00,17.7,8.5,27.32,NNW,343,6.0,28.9,66,0.00,--,--,0.00,awk and wget,2013-02-21 03:30:00,
2013-02-20 22:40:00,17.8,8.3,27.31,NNW,344,9.1,28.9,65,0.00,--,--,0.00,awk and wget,2013-02-21 03:40:00,
2013-02-20 22:50:00,17.2,8.5,27.30,NNW,343,4.9,24.4,68,0.00,--,--,0.00,awk and wget,2013-02-21 03:50:00,
2013-02-20 23:00:00,17.0,8.4,27.30,NNW,341,8.5,19.6,68,0.00,--,--,0.00,awk and wget,2013-02-21 04:00:00,
2013-02-20 23:10:00,17.1,8.3,27.31,NNW,346,6.5,22.0,67,0.00,--,--,0.00,awk and wget,2013-02-21 04:10:00,
2013-02-20 23:20:00,17.0,8.3,27.31,NNW,343,13.1,22.0,68,0.00,--,--,0.00,awk and wget,2013-02-21 04:20:00,
2013-02-20 23:30:00,17.2,8.2,27.31,NNW,347,8.4,19.7,67,0.00,--,--,0.00,awk and wget,2013-02-21 04:30:00,
2013-02-20 23:40:00,17.0,8.2,27.31,NNW,346,13.0,18.5,67,0.00,--,--,0.00,awk and wget,2013-02-21 04:40:00,
2013-02-20 23:50:00,16.9,8.3,27.31,NNW,342,8.1,21.2,68,0.00,--,--,0.00,awk and wget,2013-02-21 04:50:00,